createdAt,value
2022-09-07T00:00:54.400Z,8.28
2022-09-07T00:01:58.389Z,8.30
2022-09-07T00:03:03.083Z,8.29
2022-09-07T00:04:07.143Z,8.29
2022-09-07T00:05:11.310Z,8.27
2022-09-07T00:06:16.494Z,8.26
2022-09-07T00:07:20.481Z,8.25
2022-09-07T00:08:26.626Z,8.25
2022-09-07T00:09:30.689Z,8.20
2022-09-07T00:10:34.941Z,8.18
2022-09-07T00:11:38.984Z,8.18
2022-09-07T00:12:43.450Z,8.17
2022-09-07T00:13:49.476Z,8.17
2022-09-07T00:14:53.628Z,8.16
2022-09-07T00:15:59.707Z,8.16
2022-09-07T00:17:03.755Z,8.16
2022-09-07T00:18:07.824Z,8.16
2022-09-07T00:19:11.910Z,8.16
2022-09-07T00:20:18.388Z,8.13
2022-09-07T00:21:22.460Z,8.15
2022-09-07T00:22:26.582Z,8.14
2022-09-07T00:23:32.131Z,8.15
2022-09-07T00:24:36.204Z,8.15
2022-09-07T00:25:42.445Z,8.15
2022-09-07T00:26:46.460Z,8.15
2022-09-07T00:27:50.491Z,8.15
2022-09-07T00:29:05.850Z,8.12
2022-09-07T00:30:10.798Z,8.12
2022-09-07T00:31:18.231Z,8.08
2022-09-07T00:32:22.313Z,8.08
2022-09-07T00:33:27.445Z,8.08
2022-09-07T00:34:31.512Z,8.07
2022-09-07T00:35:40.844Z,8.07
2022-09-07T00:36:44.919Z,8.04
2022-09-07T00:37:59.386Z,8.02
2022-09-07T00:39:10.666Z,8.02
2022-09-07T00:40:34.057Z,8.00
2022-09-07T00:41:43.940Z,7.98
2022-09-07T00:42:47.926Z,7.97
2022-09-07T00:43:54.955Z,7.96
2022-09-07T00:45:08.919Z,7.96
2022-09-07T00:46:16.537Z,7.94
2022-09-07T00:47:40.062Z,7.95
2022-09-07T00:48:49.758Z,7.95
2022-09-07T00:49:56.734Z,7.95
2022-09-07T00:51:03.833Z,7.94
2022-09-07T00:52:11.614Z,7.94
2022-09-07T00:53:22.716Z,7.94
2022-09-07T00:54:42.981Z,7.93
2022-09-07T00:55:49.793Z,7.91
2022-09-07T00:56:54.614Z,7.91
2022-09-07T00:58:00.340Z,7.90
2022-09-07T00:59:05.276Z,7.90
2022-09-07T01:00:11.194Z,7.89
2022-09-07T01:01:15.413Z,7.89
2022-09-07T01:02:21.744Z,7.90
2022-09-07T01:03:31.041Z,7.88
2022-09-07T01:04:36.307Z,7.89
2022-09-07T01:05:48.788Z,7.88
2022-09-07T01:06:55.448Z,7.89
2022-09-07T01:07:59.887Z,7.88
2022-09-07T01:09:12.398Z,7.87
2022-09-07T01:10:16.940Z,7.88
2022-09-07T01:11:23.249Z,7.88
2022-09-07T01:12:27.223Z,7.87
2022-09-07T01:13:33.092Z,7.85
2022-09-07T01:14:40.107Z,7.85
2022-09-07T01:15:53.139Z,7.85
2022-09-07T01:17:33.438Z,7.86
2022-09-07T01:19:00.075Z,7.86
2022-09-07T01:20:34.440Z,7.83
2022-09-07T01:22:10.148Z,7.81
2022-09-07T01:23:23.152Z,7.79
2022-09-07T01:24:42.209Z,7.77
2022-09-07T01:26:01.227Z,7.76
2022-09-07T01:27:24.409Z,7.75
2022-09-07T01:28:34.519Z,7.75
2022-09-07T01:30:02.630Z,7.75
2022-09-07T01:31:21.479Z,7.72
2022-09-07T01:32:31.592Z,7.73
2022-09-07T01:33:49.769Z,7.72
2022-09-07T01:34:56.148Z,7.72
2022-09-07T01:36:03.154Z,7.73
2022-09-07T01:37:24.960Z,7.74
2022-09-07T01:38:37.823Z,7.72
2022-09-07T01:39:47.796Z,7.72
2022-09-07T01:41:06.473Z,7.71
2022-09-07T01:42:13.530Z,7.73
2022-09-07T01:43:29.202Z,7.74
2022-09-07T01:44:42.115Z,7.74
2022-09-07T01:45:48.032Z,7.73
2022-09-07T01:46:55.229Z,7.74
2022-09-07T01:48:04.504Z,7.75
2022-09-07T01:49:14.517Z,7.76
2022-09-07T01:50:28.892Z,7.75
2022-09-07T01:51:38.947Z,7.77
2022-09-07T01:52:51.212Z,7.77
2022-09-07T01:53:58.182Z,7.75
2022-09-07T01:55:05.177Z,7.76
2022-09-07T01:56:15.519Z,7.75
2022-09-07T01:57:22.496Z,7.75
2022-09-07T01:58:32.504Z,7.75
2022-09-07T01:59:42.453Z,7.75
2022-09-07T02:00:49.460Z,7.74
2022-09-07T02:01:56.570Z,7.74
2022-09-07T02:03:09.340Z,7.73
2022-09-07T02:04:37.402Z,7.73
2022-09-07T02:05:47.203Z,7.73
2022-09-07T02:07:21.319Z,7.71
2022-09-07T02:08:39.758Z,7.71
2022-09-07T02:09:49.337Z,7.67
2022-09-07T02:12:16.887Z,7.64
2022-09-07T02:13:23.872Z,7.63
2022-09-07T02:14:33.506Z,7.63
2022-09-07T02:15:46.317Z,7.63
2022-09-07T02:17:02.521Z,7.63
2022-09-07T02:18:11.465Z,7.62
2022-09-07T02:19:18.089Z,7.61
2022-09-07T02:20:31.202Z,7.60
2022-09-07T02:21:43.796Z,7.61
2022-09-07T02:22:52.373Z,6.46
2022-09-07T02:24:00.950Z,6.46
2022-09-07T02:25:07.265Z,7.60
2022-09-07T02:26:17.530Z,7.60
2022-09-07T02:27:27.393Z,7.59
2022-09-07T02:28:34.651Z,7.58
2022-09-07T02:29:38.840Z,7.59
2022-09-07T02:30:43.497Z,7.57
2022-09-07T02:31:47.960Z,7.57
2022-09-07T02:32:51.997Z,7.57
2022-09-07T02:33:56.423Z,7.55
2022-09-07T02:35:02.113Z,7.55
2022-09-07T02:36:06.631Z,7.54
2022-09-07T02:37:13.491Z,7.54
2022-09-07T02:38:17.592Z,7.54
2022-09-07T02:39:21.611Z,7.53
2022-09-07T02:40:27.318Z,7.53
2022-09-07T02:41:34.252Z,7.52
2022-09-07T02:42:39.755Z,7.52
2022-09-07T02:43:43.783Z,7.49
2022-09-07T02:44:48.296Z,7.49
2022-09-07T02:46:06.995Z,7.48
2022-09-07T02:47:27.521Z,7.46
2022-09-07T02:48:46.322Z,7.45
2022-09-07T02:49:56.010Z,7.45
2022-09-07T02:51:24.166Z,7.42
2022-09-07T02:52:35.701Z,7.40
2022-09-07T02:54:05.138Z,7.40
2022-09-07T02:55:27.156Z,7.34
2022-09-07T02:56:40.115Z,7.34
2022-09-07T02:58:04.974Z,7.29
2022-09-07T02:59:24.027Z,7.27
2022-09-07T03:00:32.546Z,7.24
2022-09-07T03:01:59.033Z,7.22
2022-09-07T03:03:11.640Z,7.20
2022-09-07T03:04:27.177Z,7.20
2022-09-07T03:05:40.042Z,7.18
2022-09-07T03:07:04.978Z,7.18
2022-09-07T03:08:17.926Z,7.16
2022-09-07T03:09:24.971Z,7.16
2022-09-07T03:10:30.592Z,7.16
2022-09-07T03:12:48.480Z,7.15
2022-09-07T03:13:54.025Z,7.14
2022-09-07T03:14:58.078Z,7.13
2022-09-07T03:16:02.226Z,7.12
2022-09-07T03:17:06.344Z,7.12
2022-09-07T03:18:11.671Z,7.12
2022-09-07T03:19:15.854Z,7.13
2022-09-07T03:20:22.643Z,7.13
2022-09-07T03:21:28.181Z,7.14
2022-09-07T03:22:32.161Z,7.15
2022-09-07T03:23:36.134Z,7.15
2022-09-07T03:24:40.209Z,7.19
2022-09-07T03:25:44.170Z,7.19
2022-09-07T03:26:48.989Z,7.19
2022-09-07T03:27:52.944Z,7.23
2022-09-07T03:28:56.970Z,7.23
2022-09-07T03:30:01.405Z,7.34
2022-09-07T03:31:05.388Z,7.40
2022-09-07T03:32:09.417Z,7.44
2022-09-07T03:33:13.798Z,7.44
2022-09-07T03:34:18.017Z,7.48
2022-09-07T03:35:22.313Z,7.50
2022-09-07T03:36:26.466Z,7.52
2022-09-07T03:37:30.813Z,7.58
2022-09-07T03:38:34.876Z,7.64
2022-09-07T03:39:38.827Z,7.75
2022-09-07T03:40:42.791Z,7.75
2022-09-07T03:41:46.944Z,7.84
2022-09-07T03:42:51.388Z,8.02
2022-09-07T03:43:55.781Z,8.09
2022-09-07T03:44:59.662Z,8.14
2022-09-07T03:46:07.675Z,8.24
2022-09-07T03:47:13.605Z,8.28
2022-09-07T03:48:19.193Z,8.38
2022-09-07T03:49:26.215Z,8.38
2022-09-07T03:50:31.004Z,8.53
2022-09-07T03:51:35.055Z,8.61
2022-09-07T03:52:39.548Z,8.61
2022-09-07T03:54:09.576Z,8.76
2022-09-07T04:08:52.094Z,9.86
2022-09-07T04:10:05.612Z,9.86
2022-09-07T04:12:42.861Z,10.23
2022-09-07T04:13:47.010Z,10.35
2022-09-07T04:14:50.961Z,10.46
2022-09-07T04:15:55.958Z,10.57
2022-09-07T04:17:01.625Z,9.96
2022-09-07T04:18:05.774Z,10.80
2022-09-07T04:19:09.739Z,10.93
2022-09-07T04:20:15.054Z,11.05
2022-09-07T04:21:21.646Z,11.16
2022-09-07T04:22:28.520Z,11.27
2022-09-07T04:23:32.975Z,11.41
2022-09-07T04:24:36.866Z,11.51
2022-09-07T04:25:49.194Z,11.60
2022-09-07T04:26:53.620Z,11.74
2022-09-07T04:27:57.589Z,11.81
2022-09-07T04:29:01.906Z,11.90
2022-09-07T04:30:06.319Z,11.99
2022-09-07T04:31:12.329Z,12.10
2022-09-07T04:32:16.391Z,12.23
2022-09-07T04:33:21.940Z,12.36
2022-09-07T04:34:25.927Z,12.36
2022-09-07T04:35:29.908Z,12.46
2022-09-07T04:36:34.424Z,12.78
2022-09-07T04:37:38.379Z,12.91
2022-09-07T04:38:42.351Z,13.05
2022-09-07T04:39:46.463Z,13.05
2022-09-07T04:40:50.456Z,13.28
2022-09-07T04:41:54.414Z,13.43
2022-09-07T04:42:58.395Z,13.53
2022-09-07T04:44:04.261Z,13.53
2022-09-07T04:45:12.691Z,13.72
2022-09-07T04:46:36.206Z,13.72
2022-09-07T04:47:42.269Z,13.77
2022-09-07T04:48:52.089Z,14.02
2022-09-07T04:49:56.517Z,14.09
2022-09-07T04:51:07.651Z,14.09
2022-09-07T04:52:11.616Z,14.31
2022-09-07T04:53:15.648Z,14.38
2022-09-07T04:54:22.723Z,14.46
2022-09-07T04:55:26.759Z,14.55
2022-09-07T04:56:32.081Z,14.59
2022-09-07T04:57:36.112Z,14.59
2022-09-07T04:58:40.119Z,14.74
2022-09-07T04:59:44.092Z,14.74
2022-09-07T05:00:48.072Z,14.88
2022-09-07T05:01:55.772Z,14.98
2022-09-07T05:02:59.394Z,15.01
2022-09-07T05:04:05.060Z,15.07
2022-09-07T05:05:09.374Z,15.09
2022-09-07T05:06:16.899Z,15.17
2022-09-07T05:07:20.885Z,15.17
2022-09-07T05:08:27.442Z,15.22
2022-09-07T05:09:33.113Z,15.24
2022-09-07T05:10:38.684Z,15.37
2022-09-07T05:11:45.517Z,15.40
2022-09-07T05:12:49.634Z,15.45
2022-09-07T05:13:57.810Z,15.48
2022-09-07T05:15:03.208Z,15.48
2022-09-07T05:16:16.138Z,15.51
2022-09-07T05:17:20.219Z,15.58
2022-09-07T05:18:26.307Z,15.62
2022-09-07T05:19:30.387Z,15.68
2022-09-07T05:20:34.866Z,15.76
2022-09-07T05:21:41.712Z,15.76
2022-09-07T05:22:48.967Z,15.85
2022-09-07T05:23:55.221Z,15.85
2022-09-07T05:24:59.188Z,15.86
2022-09-07T05:26:05.228Z,15.93
2022-09-07T05:27:09.409Z,15.93
2022-09-07T05:28:19.142Z,15.94
2022-09-07T05:31:33.634Z,16.04
2022-09-07T05:32:37.663Z,16.10
2022-09-07T05:34:55.903Z,16.11
2022-09-07T05:36:02.650Z,16.18
2022-09-07T05:37:06.487Z,16.18
2022-09-07T05:38:10.519Z,16.18
2022-09-07T05:39:14.571Z,16.22
2022-09-07T05:40:20.115Z,16.23
2022-09-07T05:41:27.960Z,16.23
2022-09-07T05:42:31.700Z,16.34
2022-09-07T05:43:35.886Z,16.34
2022-09-07T05:45:45.822Z,16.40
2022-09-07T05:46:51.390Z,16.40
2022-09-07T05:47:55.352Z,16.42
2022-09-07T05:48:59.501Z,16.49
2022-09-07T05:50:05.241Z,16.49
2022-09-07T05:51:09.806Z,16.51
2022-09-07T05:52:13.784Z,16.49
2022-09-07T05:53:18.805Z,16.51
2022-09-07T05:54:22.813Z,16.51
2022-09-07T05:55:30.754Z,16.57
2022-09-07T05:56:35.190Z,16.57
2022-09-07T05:57:39.181Z,16.65
2022-09-07T05:58:43.244Z,16.65
2022-09-07T05:59:47.244Z,16.74
2022-09-07T06:00:51.297Z,16.74
2022-09-07T06:01:55.584Z,16.77
2022-09-07T06:02:59.737Z,16.81
2022-09-07T06:04:04.130Z,16.81
2022-09-07T06:05:09.286Z,16.81
2022-09-07T06:06:18.858Z,16.84
2022-09-07T06:07:23.527Z,16.87
2022-09-07T06:08:27.800Z,16.87
2022-09-07T06:09:31.859Z,16.90
2022-09-07T06:10:44.924Z,16.90
2022-09-07T06:11:43.256Z,16.84
2022-09-07T06:12:49.164Z,16.74
2022-09-07T06:13:54.601Z,16.67
2022-09-07T06:14:58.599Z,16.67
2022-09-07T06:16:04.033Z,16.63
2022-09-07T06:17:08.158Z,16.63
2022-09-07T06:18:12.057Z,16.67
2022-09-07T06:19:16.179Z,16.68
2022-09-07T06:20:21.257Z,16.77
2022-09-07T06:21:25.599Z,16.79
2022-09-07T06:22:32.551Z,16.84
2022-09-07T06:23:37.265Z,16.84
2022-09-07T06:24:41.317Z,16.82
2022-09-07T06:25:51.310Z,16.78
2022-09-07T06:26:55.387Z,16.78
2022-09-07T06:27:59.362Z,16.82
2022-09-07T06:29:03.508Z,16.82
2022-09-07T06:30:08.176Z,16.85
2022-09-07T06:31:14.917Z,16.92
2022-09-07T06:33:26.262Z,17.10
2022-09-07T06:34:30.298Z,17.15
2022-09-07T06:35:35.817Z,17.15
2022-09-07T06:36:41.319Z,17.20
2022-09-07T06:37:45.368Z,17.27
2022-09-07T06:38:51.063Z,17.27
2022-09-07T06:39:55.048Z,17.31
2022-09-07T06:42:13.332Z,17.41
2022-09-07T06:43:17.290Z,17.41
2022-09-07T06:44:21.181Z,17.41
2022-09-07T06:45:25.200Z,17.44
2022-09-07T06:47:35.061Z,17.46
2022-09-07T06:48:43.827Z,17.43
2022-09-07T06:49:44.839Z,17.43
2022-09-07T06:51:00.749Z,17.42
2022-09-07T06:52:04.735Z,17.35
2022-09-07T06:55:20.184Z,17.44
2022-09-07T06:56:25.509Z,17.40
2022-09-07T06:57:29.552Z,17.45
2022-09-07T06:58:37.057Z,17.45
2022-09-07T06:59:42.726Z,17.44
2022-09-07T07:00:47.978Z,17.43
2022-09-07T07:01:52.014Z,17.43
2022-09-07T07:02:57.545Z,17.46
2022-09-07T07:04:03.071Z,17.46
2022-09-07T07:05:08.931Z,17.50
2022-09-07T07:06:13.719Z,17.51
2022-09-07T07:07:17.730Z,17.50
2022-09-07T07:08:23.029Z,17.50
2022-09-07T07:09:27.063Z,17.58
2022-09-07T07:10:31.322Z,17.60
2022-09-07T07:11:35.749Z,17.64
2022-09-07T07:13:44.130Z,17.69
2022-09-07T07:14:48.079Z,17.74
2022-09-07T07:15:52.030Z,17.75
2022-09-07T07:16:55.980Z,17.75
2022-09-07T07:18:09.650Z,17.74
2022-09-07T07:19:05.815Z,17.73
2022-09-07T07:20:16.174Z,17.74
2022-09-07T07:21:42.945Z,17.74
2022-09-07T07:22:52.747Z,17.77
2022-09-07T07:23:45.667Z,17.85
2022-09-07T07:24:49.859Z,17.87
2022-09-07T07:25:53.805Z,17.87
2022-09-07T07:26:57.783Z,17.92
2022-09-07T07:29:08.439Z,17.93
2022-09-07T07:30:14.732Z,17.94
2022-09-07T07:31:21.429Z,17.98
2022-09-07T07:32:27.135Z,17.98
2022-09-07T07:33:34.883Z,17.99
2022-09-07T07:34:38.945Z,17.99
2022-09-07T07:35:44.505Z,17.99
2022-09-07T07:36:48.495Z,18.05
2022-09-07T07:39:01.977Z,18.08
2022-09-07T07:40:18.630Z,18.06
2022-09-07T07:42:22.704Z,18.10
2022-09-07T07:43:26.693Z,18.10
2022-09-07T07:44:30.673Z,18.05
2022-09-07T07:46:41.070Z,18.09
2022-09-07T07:47:49.854Z,18.17
2022-09-07T07:48:54.738Z,18.17
2022-09-07T07:51:11.902Z,18.33
2022-09-07T07:54:24.271Z,18.49
2022-09-07T07:55:44.165Z,18.58
2022-09-07T07:56:34.212Z,18.58
2022-09-07T07:57:38.166Z,18.48
2022-09-07T07:58:47.161Z,18.34
2022-09-07T07:59:51.117Z,18.34
2022-09-07T08:01:06.052Z,18.30
2022-09-07T08:02:13.220Z,18.38
2022-09-07T08:03:17.323Z,18.38
2022-09-07T08:04:23.880Z,18.47
2022-09-07T08:05:26.968Z,18.47
2022-09-07T08:06:31.489Z,18.48
2022-09-07T08:07:35.526Z,18.52
2022-09-07T08:08:39.615Z,18.43
2022-09-07T08:09:49.382Z,18.42
2022-09-07T08:10:52.579Z,18.44
2022-09-07T08:11:56.680Z,18.44
2022-09-07T08:13:00.599Z,18.43
2022-09-07T08:14:05.136Z,18.43
2022-09-07T08:15:09.435Z,18.42
2022-09-07T08:16:15.616Z,18.41
2022-09-07T08:17:19.627Z,18.41
2022-09-07T08:18:25.138Z,18.50
2022-09-07T08:19:31.816Z,18.50
2022-09-07T08:20:35.883Z,18.62
2022-09-07T08:21:39.809Z,18.84
2022-09-07T08:22:43.840Z,18.96
2022-09-07T08:23:47.780Z,18.96
2022-09-07T08:24:53.651Z,19.12
2022-09-07T08:25:57.811Z,19.12
2022-09-07T08:27:02.235Z,19.32
2022-09-07T08:28:06.897Z,19.39
2022-09-07T08:29:10.895Z,19.39
2022-09-07T08:30:15.509Z,19.43
2022-09-07T08:31:19.633Z,19.43
2022-09-07T08:32:25.147Z,19.28
2022-09-07T08:33:46.778Z,19.28
2022-09-07T08:34:50.713Z,19.15
2022-09-07T08:35:56.942Z,19.19
2022-09-07T08:37:03.072Z,19.21
2022-09-07T08:38:06.718Z,19.24
2022-09-07T08:39:11.046Z,19.31
2022-09-07T08:40:19.572Z,19.31
2022-09-07T08:41:54.455Z,19.34
2022-09-07T08:43:12.794Z,19.34
2022-09-07T08:44:20.225Z,19.36
2022-09-07T08:45:36.064Z,19.36
2022-09-07T08:46:51.751Z,19.40
2022-09-07T08:47:56.090Z,19.42
2022-09-07T08:49:02.454Z,19.44
2022-09-07T08:50:24.503Z,19.51
2022-09-07T08:51:48.194Z,19.53
2022-09-07T08:52:55.223Z,19.53
2022-09-07T08:54:00.585Z,19.41
2022-09-07T08:55:13.416Z,19.34
2022-09-07T08:56:24.858Z,19.34
2022-09-07T08:57:31.809Z,19.29
2022-09-07T08:58:53.315Z,19.35
2022-09-07T09:00:06.031Z,19.31
2022-09-07T09:01:37.667Z,19.32
2022-09-07T09:02:28.679Z,19.34
2022-09-07T09:04:14.649Z,19.29
2022-09-07T09:05:52.416Z,19.34
2022-09-07T09:07:05.266Z,19.34
2022-09-07T09:08:34.598Z,19.41
2022-09-07T09:09:41.530Z,19.40
2022-09-07T09:10:57.448Z,19.33
2022-09-07T09:12:13.105Z,19.33
2022-09-07T09:15:05.684Z,19.29
2022-09-07T09:16:35.318Z,19.30
2022-09-07T09:17:51.108Z,19.30
2022-09-07T09:19:12.982Z,19.28
2022-09-07T09:20:36.200Z,19.31
2022-09-07T09:21:42.082Z,19.30
2022-09-07T09:22:48.045Z,19.30
2022-09-07T09:23:54.916Z,19.37
2022-09-07T09:25:07.315Z,19.37
2022-09-07T09:26:17.456Z,19.37
2022-09-07T09:27:21.440Z,19.33
2022-09-07T09:28:27.697Z,19.33
2022-09-07T09:29:31.458Z,19.19
2022-09-07T09:30:36.923Z,19.13
2022-09-07T09:31:43.451Z,18.98
2022-09-07T09:32:50.026Z,18.98
2022-09-07T09:34:16.333Z,18.99
2022-09-07T09:35:38.084Z,18.99
2022-09-07T09:36:58.183Z,18.96
2022-09-07T09:38:40.829Z,18.90
2022-09-07T09:39:56.206Z,18.75
2022-09-07T09:41:05.132Z,18.72
2022-09-07T09:42:17.224Z,18.65
2022-09-07T09:43:24.470Z,18.62
2022-09-07T09:44:31.402Z,18.59
2022-09-07T09:48:02.464Z,18.70
2022-09-07T09:49:29.130Z,18.68
2022-09-07T09:54:08.490Z,19.00
2022-09-07T09:54:30.944Z,18.83
2022-09-07T09:55:33.756Z,18.82
2022-09-07T09:56:16.995Z,18.82
2022-09-07T10:00:34.039Z,18.88
2022-09-07T10:04:58.051Z,18.89
2022-09-07T10:06:05.257Z,18.89
2022-09-07T10:07:19.623Z,18.95
2022-09-07T10:08:27.526Z,19.04
2022-09-07T10:09:43.371Z,19.10
2022-09-07T10:11:06.735Z,19.14
2022-09-07T10:12:24.828Z,19.13
2022-09-07T10:13:31.803Z,19.09
2022-09-07T10:14:44.413Z,19.09
2022-09-07T10:15:53.757Z,19.06
2022-09-07T10:16:59.218Z,19.06
2022-09-07T10:18:09.346Z,19.10
2022-09-07T10:19:31.423Z,19.15
2022-09-07T10:20:38.231Z,19.01
2022-09-07T10:21:45.135Z,19.01
2022-09-07T10:22:59.907Z,19.07
2022-09-07T10:24:09.907Z,19.06
2022-09-07T10:25:40.788Z,19.01
2022-09-07T10:26:46.311Z,19.04
2022-09-07T10:27:55.958Z,19.04
2022-09-07T10:29:23.938Z,19.08
2022-09-07T10:30:29.204Z,19.06
2022-09-07T10:31:36.151Z,19.06
2022-09-07T10:33:01.177Z,19.02
2022-09-07T10:34:28.955Z,19.01
2022-09-07T10:35:37.307Z,19.05
2022-09-07T10:36:56.300Z,19.05
2022-09-07T10:38:15.303Z,19.08
2022-09-07T10:39:28.254Z,19.08
2022-09-07T10:40:41.632Z,18.97
2022-09-07T10:42:06.357Z,18.96
2022-09-07T10:43:29.676Z,18.94
2022-09-07T10:44:52.664Z,18.89
2022-09-07T10:46:56.192Z,18.82
2022-09-07T10:47:42.650Z,18.78
2022-09-07T10:49:12.071Z,18.78
2022-09-07T10:50:23.087Z,18.78
2022-09-07T10:51:33.392Z,18.89
2022-09-07T10:52:45.993Z,18.91
2022-09-07T10:56:35.408Z,19.06
2022-09-07T10:57:49.307Z,18.93
2022-09-07T10:59:03.562Z,18.95
2022-09-07T11:00:20.670Z,18.96
2022-09-07T11:01:30.315Z,18.97
2022-09-07T11:03:28.852Z,18.97
2022-09-07T11:04:44.829Z,18.98
2022-09-07T11:06:21.545Z,18.98
2022-09-07T11:07:47.802Z,18.96
2022-09-07T11:09:16.150Z,18.94
2022-09-07T11:10:33.425Z,18.89
2022-09-07T11:12:04.830Z,18.61
2022-09-07T11:13:11.886Z,18.84
2022-09-07T11:14:18.819Z,18.84
2022-09-07T11:15:28.366Z,18.83
2022-09-07T11:16:54.532Z,18.83
2022-09-07T11:18:05.633Z,18.83
2022-09-07T11:20:33.579Z,18.87
2022-09-07T11:21:58.744Z,18.90
2022-09-07T11:23:15.179Z,18.90
2022-09-07T11:24:31.237Z,18.90
2022-09-07T11:25:40.723Z,18.87
2022-09-07T11:26:50.689Z,18.82
2022-09-07T11:28:03.132Z,18.82
2022-09-07T11:29:31.140Z,18.72
2022-09-07T11:30:47.964Z,18.68
2022-09-07T11:31:54.845Z,18.64
2022-09-07T11:33:07.891Z,18.59
2022-09-07T11:34:24.271Z,18.59
2022-09-07T11:35:45.942Z,18.50
2022-09-07T11:36:52.988Z,18.52
2022-09-07T11:37:59.934Z,18.54
2022-09-07T11:39:15.627Z,18.55
2022-09-07T11:40:29.047Z,18.46
2022-09-07T11:41:45.146Z,18.46
2022-09-07T11:43:21.826Z,18.43
2022-09-07T11:44:31.612Z,18.43
2022-09-07T11:45:41.103Z,18.38
2022-09-07T11:46:48.130Z,18.35
2022-09-07T11:47:57.931Z,18.38
2022-09-07T11:49:04.344Z,18.38
2022-09-07T11:50:19.347Z,18.42
2022-09-07T11:51:43.611Z,18.44
2022-09-07T11:52:59.315Z,18.46
2022-09-07T11:54:15.332Z,18.46
2022-09-07T11:55:31.125Z,18.46
2022-09-07T11:56:38.817Z,18.46
2022-09-07T11:57:45.754Z,18.45
2022-09-07T11:59:13.474Z,18.45
2022-09-07T12:00:20.274Z,18.48
2022-09-07T12:01:30.016Z,18.48
2022-09-07T12:03:00.821Z,18.50
2022-09-07T12:04:28.918Z,18.51
2022-09-07T12:05:35.876Z,18.54
2022-09-07T12:06:45.352Z,18.50
2022-09-07T12:08:25.198Z,18.50
2022-09-07T12:09:47.217Z,18.56
2022-09-07T12:11:13.629Z,18.56
2022-09-07T12:12:23.252Z,18.57
2022-09-07T12:13:36.198Z,18.58
2022-09-07T12:15:01.258Z,18.58
2022-09-07T12:16:14.062Z,18.64
2022-09-07T12:17:26.720Z,18.64
2022-09-07T12:18:45.336Z,18.66
2022-09-07T12:20:08.399Z,18.66
2022-09-07T12:21:33.056Z,18.68
2022-09-07T12:22:37.418Z,18.69
2022-09-07T12:23:44.362Z,18.70
2022-09-07T12:24:53.223Z,18.72
2022-09-07T12:26:16.421Z,18.72
2022-09-07T12:27:28.807Z,18.67
2022-09-07T12:28:38.527Z,18.68
2022-09-07T12:29:45.698Z,18.67
2022-09-07T12:30:54.305Z,18.65
2022-09-07T12:32:53.526Z,18.60
2022-09-07T12:33:29.306Z,18.62
2022-09-07T12:34:36.327Z,18.63
2022-09-07T12:35:41.561Z,18.63
2022-09-07T12:36:51.837Z,18.61
2022-09-07T12:37:57.026Z,18.61
2022-09-07T12:39:06.683Z,18.61
2022-09-07T12:40:34.319Z,18.67
2022-09-07T12:41:47.864Z,18.67
2022-09-07T12:43:11.235Z,18.70
2022-09-07T12:44:27.297Z,18.72
2022-09-07T12:45:40.424Z,18.75
2022-09-07T12:46:50.436Z,18.75
2022-09-07T12:47:59.973Z,18.71
2022-09-07T12:49:11.338Z,18.71
2022-09-07T12:50:19.526Z,18.57
2022-09-07T12:52:47.475Z,18.60
2022-09-07T12:54:18.112Z,18.61
2022-09-07T12:55:31.137Z,18.59
2022-09-07T12:58:14.182Z,18.60
2022-09-07T12:59:48.418Z,18.60
2022-09-07T13:01:07.255Z,18.57
2022-09-07T13:02:23.545Z,18.53
2022-09-07T13:03:50.333Z,18.53
2022-09-07T13:04:59.414Z,18.50
2022-09-07T13:08:09.053Z,18.52
2022-09-07T13:09:36.669Z,18.52
2022-09-07T13:10:44.724Z,18.48
2022-09-07T13:11:49.020Z,18.48
2022-09-07T13:12:54.440Z,18.46
2022-09-07T13:14:09.477Z,18.46
2022-09-07T13:15:37.996Z,18.46
2022-09-07T13:17:56.589Z,18.38
2022-09-07T13:19:04.936Z,18.26
2022-09-07T13:20:21.120Z,18.34
2022-09-07T13:21:41.234Z,18.39
2022-09-07T13:22:48.349Z,18.42
2022-09-07T13:25:29.292Z,18.43
2022-09-07T13:26:52.803Z,18.43
2022-09-07T13:28:06.109Z,18.43
2022-09-07T13:29:13.866Z,18.43
2022-09-07T13:30:46.546Z,18.41
2022-09-07T13:32:19.963Z,18.40
2022-09-07T13:33:29.793Z,18.34
2022-09-07T13:34:36.919Z,18.30
2022-09-07T13:35:54.811Z,18.30
2022-09-07T13:36:50.447Z,18.25
2022-09-07T13:37:57.363Z,18.17
2022-09-07T13:39:01.586Z,18.16
2022-09-07T13:40:08.874Z,18.14
2022-09-07T13:41:23.079Z,18.14
2022-09-07T13:42:34.044Z,18.14
2022-09-07T13:43:38.048Z,18.14
2022-09-07T13:44:42.831Z,18.10
2022-09-07T13:46:01.188Z,18.14
2022-09-07T13:47:23.019Z,18.15
2022-09-07T13:48:38.683Z,18.15
2022-09-07T13:50:03.269Z,18.16
2022-09-07T13:51:22.076Z,18.18
2022-09-07T13:52:44.013Z,18.18
2022-09-07T13:54:07.138Z,18.21
2022-09-07T13:55:47.514Z,18.21
2022-09-07T13:57:18.551Z,18.17
2022-09-07T13:58:31.158Z,18.10
2022-09-07T13:59:36.363Z,17.98
2022-09-07T14:02:24.078Z,18.03
2022-09-07T14:03:30.793Z,18.06
2022-09-07T14:04:41.212Z,18.06
2022-09-07T14:05:45.182Z,18.10
2022-09-07T14:06:49.441Z,18.12
2022-09-07T14:07:53.371Z,18.14
2022-09-07T14:09:00.309Z,18.14
2022-09-07T14:10:19.378Z,18.17
2022-09-07T14:11:26.447Z,18.09
2022-09-07T14:12:31.006Z,18.13
2022-09-07T14:13:34.989Z,18.12
2022-09-07T14:14:39.081Z,18.12
2022-09-07T14:15:46.384Z,18.13
2022-09-07T14:16:58.984Z,18.13
2022-09-07T14:18:06.363Z,18.11
2022-09-07T14:19:19.056Z,18.11
2022-09-07T14:20:25.923Z,18.12
2022-09-07T14:21:31.231Z,17.71
2022-09-07T14:22:35.945Z,17.71
2022-09-07T14:23:41.942Z,18.08
2022-09-07T14:24:54.084Z,18.07
2022-09-07T14:26:19.311Z,18.07
2022-09-07T14:27:26.057Z,18.09
2022-09-07T14:28:32.525Z,18.10
2022-09-07T14:29:37.073Z,18.10
2022-09-07T14:30:41.382Z,18.10
2022-09-07T14:31:45.761Z,18.11
2022-09-07T14:32:58.510Z,18.11
2022-09-07T14:34:02.898Z,18.11
2022-09-07T14:35:08.986Z,18.11
2022-09-07T14:36:39.355Z,18.11
2022-09-07T14:37:22.380Z,18.13
2022-09-07T14:39:43.780Z,18.12
2022-09-07T14:40:47.893Z,18.11
2022-09-07T14:41:52.253Z,18.10
2022-09-07T14:42:58.239Z,18.11
2022-09-07T14:44:02.493Z,18.11
2022-09-07T14:45:28.432Z,18.11
2022-09-07T14:46:34.713Z,18.10
2022-09-07T14:47:40.020Z,18.04
2022-09-07T14:48:46.813Z,18.01
2022-09-07T14:49:55.929Z,18.01
2022-09-07T14:51:27.019Z,17.97
2022-09-07T14:52:07.662Z,17.97
2022-09-07T14:54:23.711Z,17.96
2022-09-07T14:55:30.806Z,17.95
2022-09-07T14:56:40.647Z,17.97
2022-09-07T14:57:44.714Z,17.97
2022-09-07T14:58:50.785Z,17.98
2022-09-07T14:59:55.755Z,17.94
2022-09-07T15:02:29.055Z,17.94
2022-09-07T15:03:34.931Z,17.93
2022-09-07T15:04:39.012Z,17.91
2022-09-07T15:05:49.390Z,17.89
2022-09-07T15:07:01.236Z,17.87
2022-09-07T15:08:02.689Z,17.87
2022-09-07T15:09:08.876Z,17.86
2022-09-07T15:10:25.083Z,17.86
2022-09-07T15:11:33.192Z,17.83
2022-09-07T15:12:40.392Z,17.83
2022-09-07T15:13:47.334Z,17.80
2022-09-07T15:14:51.513Z,17.80
2022-09-07T15:16:01.271Z,17.80
2022-09-07T15:18:43.988Z,17.73
2022-09-07T15:19:48.044Z,17.71
2022-09-07T15:20:53.048Z,17.70
2022-09-07T15:21:57.269Z,17.69
2022-09-07T15:23:01.847Z,17.69
2022-09-07T15:24:07.161Z,17.68
2022-09-07T15:25:12.332Z,17.66
2022-09-07T15:27:30.839Z,17.62
2022-09-07T15:29:42.002Z,17.62
2022-09-07T15:31:39.270Z,17.39
2022-09-07T15:32:02.207Z,17.59
2022-09-07T15:32:57.881Z,17.59
2022-09-07T15:34:03.874Z,17.56
2022-09-07T15:35:08.156Z,17.53
2022-09-07T15:36:16.735Z,17.53
2022-09-07T15:39:33.325Z,17.48
2022-09-07T15:41:03.880Z,17.43
2022-09-07T15:41:48.575Z,17.41
2022-09-07T15:43:00.513Z,17.41
2022-09-07T15:43:59.007Z,17.38
2022-09-07T15:45:03.037Z,17.34
2022-09-07T15:46:07.302Z,17.34
2022-09-07T15:48:21.521Z,17.31
2022-09-07T15:49:26.808Z,17.29
2022-09-07T15:50:31.513Z,17.23
2022-09-07T15:52:41.256Z,17.18
2022-09-07T15:54:54.028Z,17.16
2022-09-07T15:55:59.811Z,17.11
2022-09-07T15:58:12.118Z,17.08
2022-09-07T15:59:16.257Z,17.02
2022-09-07T16:00:21.845Z,17.02
2022-09-07T16:03:38.962Z,16.91
2022-09-07T16:04:43.072Z,16.89
2022-09-07T16:05:47.296Z,16.85
2022-09-07T16:06:51.368Z,16.82
2022-09-07T16:09:01.028Z,16.77
2022-09-07T16:10:05.920Z,16.75
2022-09-07T16:11:24.858Z,16.71
2022-09-07T16:13:34.524Z,16.65
2022-09-07T16:14:38.492Z,16.65
2022-09-07T16:15:47.380Z,16.59
2022-09-07T16:17:57.224Z,16.51
2022-09-07T16:19:02.216Z,16.49
2022-09-07T16:20:08.185Z,16.45
2022-09-07T16:21:14.513Z,16.40
2022-09-07T16:23:25.692Z,16.37
2022-09-07T16:24:29.657Z,16.34
2022-09-07T16:25:34.680Z,16.30
2022-09-07T16:26:38.848Z,16.22
2022-09-07T16:27:45.630Z,16.22
2022-09-07T16:28:51.980Z,16.15